Terminal Aerodrome Forecast
Issued by NWS Corpus Christi, TX

Home | Current Version | Previous Version | Text Only | Print | Product List | Glossary On
Versions: 1 2 3 4 5 6 7 8 9 10 11 12 13 14
000
FTUS44 KCRP 191154
TAFVCT
TAF
KVCT 191154Z 1912/2012 13008KT 3SM BR OVC004
     FM191500 12008KT P6SM OVC008
     FM191800 15018G25KT P6SM OVC025
     FM200000 14012KT P6SM OVC015
     FM200400 14010KT 5SM -SHRA VCTS OVC015CB
      TEMPO 2005/2009 2SM TSRA BR BKN015CB
     FM200900 11008KT 2SM SHRA BR BKN007=

USA.gov is the U.S. government's official web portal to all federal, state and local government web resources and services.